sensor_id;sensor_type;location;lat;lon;timestamp;P1;durP1;ratioP1;P2;durP2;ratioP2
36371;SDS011;22398;51.346;12.372;2023-04-15T00:01:30;8.57;;;5.20;;
36371;SDS011;22398;51.346;12.372;2023-04-15T00:06:35;8.83;;;5.13;;
36371;SDS011;22398;51.346;12.372;2023-04-15T00:11:41;10.60;;;5.90;;
36371;SDS011;22398;51.346;12.372;2023-04-15T00:16:45;10.57;;;5.83;;
36371;SDS011;22398;51.346;12.372;2023-04-15T00:26:55;9.85;;;5.75;;
36371;SDS011;22398;51.346;12.372;2023-04-15T00:37:03;11.02;;;6.18;;
36371;SDS011;22398;51.346;12.372;2023-04-15T00:42:08;14.35;;;6.65;;
36371;SDS011;22398;51.346;12.372;2023-04-15T00:47:13;9.70;;;5.28;;
36371;SDS011;22398;51.346;12.372;2023-04-15T00:52:17;9.75;;;4.60;;
36371;SDS011;22398;51.346;12.372;2023-04-15T00:57:23;8.63;;;4.80;;
36371;SDS011;22398;51.346;12.372;2023-04-15T01:02:27;10.15;;;5.22;;
36371;SDS011;22398;51.346;12.372;2023-04-15T01:07:31;7.88;;;4.50;;
36371;SDS011;22398;51.346;12.372;2023-04-15T01:12:37;11.07;;;5.60;;
36371;SDS011;22398;51.346;12.372;2023-04-15T01:17:41;9.23;;;5.15;;
36371;SDS011;22398;51.346;12.372;2023-04-15T01:22:44;9.30;;;4.95;;
36371;SDS011;22398;51.346;12.372;2023-04-15T01:27:50;10.38;;;5.88;;
36371;SDS011;22398;51.346;12.372;2023-04-15T01:32:53;13.68;;;5.72;;
36371;SDS011;22398;51.346;12.372;2023-04-15T01:37:58;9.48;;;4.75;;
36371;SDS011;22398;51.346;12.372;2023-04-15T01:43:08;12.40;;;4.95;;
36371;SDS011;22398;51.346;12.372;2023-04-15T01:48:11;7.63;;;4.70;;
36371;SDS011;22398;51.346;12.372;2023-04-15T01:53:15;8.55;;;4.40;;
36371;SDS011;22398;51.346;12.372;2023-04-15T01:58:20;11.27;;;5.13;;
36371;SDS011;22398;51.346;12.372;2023-04-15T02:03:24;9.93;;;4.55;;
36371;SDS011;22398;51.346;12.372;2023-04-15T02:08:28;14.83;;;6.00;;
36371;SDS011;22398;51.346;12.372;2023-04-15T02:13:33;12.90;;;5.38;;
36371;SDS011;22398;51.346;12.372;2023-04-15T02:18:37;7.97;;;3.88;;
36371;SDS011;22398;51.346;12.372;2023-04-15T02:23:43;11.38;;;5.00;;
36371;SDS011;22398;51.346;12.372;2023-04-15T02:28:50;11.98;;;5.25;;
36371;SDS011;22398;51.346;12.372;2023-04-15T02:33:53;8.23;;;4.13;;
36371;SDS011;22398;51.346;12.372;2023-04-15T02:38:57;10.27;;;4.43;;
36371;SDS011;22398;51.346;12.372;2023-04-15T02:44:03;13.27;;;4.40;;
36371;SDS011;22398;51.346;12.372;2023-04-15T02:49:09;11.43;;;4.35;;
36371;SDS011;22398;51.346;12.372;2023-04-15T02:54:13;8.88;;;3.97;;
36371;SDS011;22398;51.346;12.372;2023-04-15T02:59:18;7.90;;;3.75;;
36371;SDS011;22398;51.346;12.372;2023-04-15T03:04:21;10.68;;;4.78;;
36371;SDS011;22398;51.346;12.372;2023-04-15T03:09:25;8.77;;;4.95;;
36371;SDS011;22398;51.346;12.372;2023-04-15T03:14:33;9.52;;;4.43;;
36371;SDS011;22398;51.346;12.372;2023-04-15T03:19:37;11.75;;;4.95;;
36371;SDS011;22398;51.346;12.372;2023-04-15T03:24:42;12.95;;;6.85;;
36371;SDS011;22398;51.346;12.372;2023-04-15T03:29:47;9.77;;;5.18;;
36371;SDS011;22398;51.346;12.372;2023-04-15T03:34:51;12.80;;;6.25;;
36371;SDS011;22398;51.346;12.372;2023-04-15T03:39:55;12.50;;;6.38;;
36371;SDS011;22398;51.346;12.372;2023-04-15T03:45:00;13.98;;;6.43;;
36371;SDS011;22398;51.346;12.372;2023-04-15T03:50:04;15.80;;;6.85;;
36371;SDS011;22398;51.346;12.372;2023-04-15T03:55:09;12.35;;;5.28;;
36371;SDS011;22398;51.346;12.372;2023-04-15T04:00:14;12.32;;;4.97;;
36371;SDS011;22398;51.346;12.372;2023-04-15T04:05:18;8.20;;;4.43;;
36371;SDS011;22398;51.346;12.372;2023-04-15T04:10:21;12.18;;;4.68;;
36371;SDS011;22398;51.346;12.372;2023-04-15T04:15:26;9.73;;;5.30;;
36371;SDS011;22398;51.346;12.372;2023-04-15T04:20:30;13.40;;;5.18;;
36371;SDS011;22398;51.346;12.372;2023-04-15T04:25:33;12.05;;;5.93;;
36371;SDS011;22398;51.346;12.372;2023-04-15T04:30:39;12.20;;;4.97;;
36371;SDS011;22398;51.346;12.372;2023-04-15T04:35:42;10.30;;;5.22;;
36371;SDS011;22398;51.346;12.372;2023-04-15T04:40:46;9.50;;;4.95;;
36371;SDS011;22398;51.346;12.372;2023-04-15T04:45:51;8.13;;;4.45;;
36371;SDS011;22398;51.346;12.372;2023-04-15T04:50:55;11.65;;;5.82;;
36371;SDS011;22398;51.346;12.372;2023-04-15T04:55:58;11.15;;;5.40;;
36371;SDS011;22398;51.346;12.372;2023-04-15T05:01:03;10.27;;;5.22;;
36371;SDS011;22398;51.346;12.372;2023-04-15T05:06:07;11.05;;;5.10;;
36371;SDS011;22398;51.346;12.372;2023-04-15T05:11:11;10.38;;;5.50;;
36371;SDS011;22398;51.346;12.372;2023-04-15T05:16:16;13.98;;;5.78;;
36371;SDS011;22398;51.346;12.372;2023-04-15T05:21:20;10.55;;;5.47;;
36371;SDS011;22398;51.346;12.372;2023-04-15T05:26:24;9.75;;;5.72;;
36371;SDS011;22398;51.346;12.372;2023-04-15T05:31:29;11.00;;;5.78;;
36371;SDS011;22398;51.346;12.372;2023-04-15T05:36:33;11.88;;;6.28;;
36371;SDS011;22398;51.346;12.372;2023-04-15T05:41:37;13.38;;;6.85;;
36371;SDS011;22398;51.346;12.372;2023-04-15T05:46:42;14.13;;;7.25;;
36371;SDS011;22398;51.346;12.372;2023-04-15T05:51:46;17.35;;;7.38;;
36371;SDS011;22398;51.346;12.372;2023-04-15T05:56:49;15.07;;;7.47;;
36371;SDS011;22398;51.346;12.372;2023-04-15T06:01:54;13.48;;;6.07;;
36371;SDS011;22398;51.346;12.372;2023-04-15T06:06:58;12.43;;;6.53;;
36371;SDS011;22398;51.346;12.372;2023-04-15T06:12:02;9.15;;;5.18;;
36371;SDS011;22398;51.346;12.372;2023-04-15T06:17:09;12.25;;;7.05;;
36371;SDS011;22398;51.346;12.372;2023-04-15T06:22:15;12.60;;;7.38;;
36371;SDS011;22398;51.346;12.372;2023-04-15T06:27:18;15.30;;;6.13;;
36371;SDS011;22398;51.346;12.372;2023-04-15T06:32:25;18.17;;;7.03;;
36371;SDS011;22398;51.346;12.372;2023-04-15T06:37:29;12.48;;;6.03;;
36371;SDS011;22398;51.346;12.372;2023-04-15T06:42:33;11.70;;;6.82;;
36371;SDS011;22398;51.346;12.372;2023-04-15T06:47:39;10.57;;;6.10;;
36371;SDS011;22398;51.346;12.372;2023-04-15T06:52:42;14.77;;;6.35;;
36371;SDS011;22398;51.346;12.372;2023-04-15T06:57:46;11.88;;;5.88;;
36371;SDS011;22398;51.346;12.372;2023-04-15T07:02:51;11.95;;;5.80;;
36371;SDS011;22398;51.346;12.372;2023-04-15T07:07:56;10.07;;;5.53;;
36371;SDS011;22398;51.346;12.372;2023-04-15T07:12:59;13.50;;;5.88;;
36371;SDS011;22398;51.346;12.372;2023-04-15T07:18:05;13.27;;;5.35;;
36371;SDS011;22398;51.346;12.372;2023-04-15T07:23:08;12.70;;;5.63;;
36371;SDS011;22398;51.346;12.372;2023-04-15T07:28:12;11.55;;;5.68;;
36371;SDS011;22398;51.346;12.372;2023-04-15T07:33:17;11.52;;;5.70;;
36371;SDS011;22398;51.346;12.372;2023-04-15T07:38:21;14.50;;;6.93;;
36371;SDS011;22398;51.346;12.372;2023-04-15T07:43:25;14.40;;;6.60;;
36371;SDS011;22398;51.346;12.372;2023-04-15T07:48:31;16.48;;;7.22;;
36371;SDS011;22398;51.346;12.372;2023-04-15T07:53:37;18.33;;;7.43;;
36371;SDS011;22398;51.346;12.372;2023-04-15T07:58:41;11.50;;;5.78;;
36371;SDS011;22398;51.346;12.372;2023-04-15T08:03:46;11.25;;;6.00;;
36371;SDS011;22398;51.346;12.372;2023-04-15T08:08:50;16.45;;;6.75;;
36371;SDS011;22398;51.346;12.372;2023-04-15T08:13:55;12.50;;;5.75;;
36371;SDS011;22398;51.346;12.372;2023-04-15T08:19:00;14.30;;;6.25;;
36371;SDS011;22398;51.346;12.372;2023-04-15T08:24:04;11.88;;;6.40;;
36371;SDS011;22398;51.346;12.372;2023-04-15T08:29:09;13.13;;;6.97;;
36371;SDS011;22398;51.346;12.372;2023-04-15T08:34:14;14.45;;;7.07;;
36371;SDS011;22398;51.346;12.372;2023-04-15T08:39:18;18.15;;;7.60;;
36371;SDS011;22398;51.346;12.372;2023-04-15T08:44:22;18.25;;;7.80;;
36371;SDS011;22398;51.346;12.372;2023-04-15T08:49:28;19.88;;;8.70;;
36371;SDS011;22398;51.346;12.372;2023-04-15T08:54:32;19.08;;;8.63;;
36371;SDS011;22398;51.346;12.372;2023-04-15T08:59:37;20.87;;;9.00;;
36371;SDS011;22398;51.346;12.372;2023-04-15T09:04:43;22.47;;;9.47;;
36371;SDS011;22398;51.346;12.372;2023-04-15T09:09:47;19.83;;;10.07;;
36371;SDS011;22398;51.346;12.372;2023-04-15T09:14:51;26.08;;;10.80;;
36371;SDS011;22398;51.346;12.372;2023-04-15T09:20:07;20.70;;;10.25;;
36371;SDS011;22398;51.346;12.372;2023-04-15T09:25:26;23.38;;;10.73;;
36371;SDS011;22398;51.346;12.372;2023-04-15T09:30:32;27.98;;;10.90;;
36371;SDS011;22398;51.346;12.372;2023-04-15T09:35:37;24.52;;;11.40;;
36371;SDS011;22398;51.346;12.372;2023-04-15T09:40:41;29.63;;;11.70;;
36371;SDS011;22398;51.346;12.372;2023-04-15T09:45:48;26.38;;;11.65;;
36371;SDS011;22398;51.346;12.372;2023-04-15T09:50:54;24.08;;;10.52;;
36371;SDS011;22398;51.346;12.372;2023-04-15T09:56:01;26.00;;;11.48;;
36371;SDS011;22398;51.346;12.372;2023-04-15T10:01:05;26.55;;;12.63;;
36371;SDS011;22398;51.346;12.372;2023-04-15T10:06:11;22.65;;;10.60;;
36371;SDS011;22398;51.346;12.372;2023-04-15T10:11:16;33.25;;;13.57;;
36371;SDS011;22398;51.346;12.372;2023-04-15T10:16:20;36.20;;;14.30;;
36371;SDS011;22398;51.346;12.372;2023-04-15T10:21:30;32.95;;;15.77;;
36371;SDS011;22398;51.346;12.372;2023-04-15T10:26:34;31.10;;;15.40;;
36371;SDS011;22398;51.346;12.372;2023-04-15T10:31:38;34.15;;;15.77;;
36371;SDS011;22398;51.346;12.372;2023-04-15T10:36:44;39.30;;;15.60;;
36371;SDS011;22398;51.346;12.372;2023-04-15T10:41:53;34.80;;;16.35;;
36371;SDS011;22398;51.346;12.372;2023-04-15T10:47:09;32.45;;;15.80;;
36371;SDS011;22398;51.346;12.372;2023-04-15T10:52:16;35.72;;;15.48;;
36371;SDS011;22398;51.346;12.372;2023-04-15T10:57:23;33.92;;;14.50;;
36371;SDS011;22398;51.346;12.372;2023-04-15T11:02:37;38.17;;;15.98;;
36371;SDS011;22398;51.346;12.372;2023-04-15T11:07:50;31.35;;;15.85;;
36371;SDS011;22398;51.346;12.372;2023-04-15T11:12:56;35.33;;;16.10;;
36371;SDS011;22398;51.346;12.372;2023-04-15T11:18:07;37.83;;;16.30;;
36371;SDS011;22398;51.346;12.372;2023-04-15T11:23:13;28.98;;;15.85;;
36371;SDS011;22398;51.346;12.372;2023-04-15T11:28:17;31.50;;;14.82;;
36371;SDS011;22398;51.346;12.372;2023-04-15T11:33:20;33.55;;;14.55;;
36371;SDS011;22398;51.346;12.372;2023-04-15T11:38:26;29.42;;;13.82;;
36371;SDS011;22398;51.346;12.372;2023-04-15T11:43:30;28.63;;;13.37;;
36371;SDS011;22398;51.346;12.372;2023-04-15T11:48:36;24.40;;;12.02;;
36371;SDS011;22398;51.346;12.372;2023-04-15T11:53:45;23.55;;;10.75;;
36371;SDS011;22398;51.346;12.372;2023-04-15T11:58:50;19.73;;;10.40;;
36371;SDS011;22398;51.346;12.372;2023-04-15T12:03:54;22.65;;;10.20;;
36371;SDS011;22398;51.346;12.372;2023-04-15T12:09:07;21.48;;;11.52;;
36371;SDS011;22398;51.346;12.372;2023-04-15T12:14:19;21.10;;;10.48;;
36371;SDS011;22398;51.346;12.372;2023-04-15T12:19:25;23.40;;;10.60;;
36371;SDS011;22398;51.346;12.372;2023-04-15T12:24:31;17.38;;;9.75;;
36371;SDS011;22398;51.346;12.372;2023-04-15T12:29:36;16.65;;;9.80;;
36371;SDS011;22398;51.346;12.372;2023-04-15T12:34:41;22.42;;;8.43;;
36371;SDS011;22398;51.346;12.372;2023-04-15T12:39:48;13.77;;;8.18;;
36371;SDS011;22398;51.346;12.372;2023-04-15T12:44:52;20.35;;;9.13;;
36371;SDS011;22398;51.346;12.372;2023-04-15T12:49:55;12.32;;;7.82;;
36371;SDS011;22398;51.346;12.372;2023-04-15T12:55:00;12.73;;;6.80;;
36371;SDS011;22398;51.346;12.372;2023-04-15T13:00:04;12.47;;;6.13;;
36371;SDS011;22398;51.346;12.372;2023-04-15T13:05:09;11.93;;;5.95;;
36371;SDS011;22398;51.346;12.372;2023-04-15T13:10:16;10.82;;;6.53;;
36371;SDS011;22398;51.346;12.372;2023-04-15T13:15:19;10.87;;;5.50;;
36371;SDS011;22398;51.346;12.372;2023-04-15T13:20:23;8.55;;;5.20;;
36371;SDS011;22398;51.346;12.372;2023-04-15T13:25:28;6.28;;;4.03;;
36371;SDS011;22398;51.346;12.372;2023-04-15T13:30:31;7.80;;;5.10;;
36371;SDS011;22398;51.346;12.372;2023-04-15T13:35:35;7.95;;;5.43;;
36371;SDS011;22398;51.346;12.372;2023-04-15T13:40:40;7.43;;;4.90;;
36371;SDS011;22398;51.346;12.372;2023-04-15T13:45:45;9.20;;;5.15;;
36371;SDS011;22398;51.346;12.372;2023-04-15T13:50:49;8.02;;;5.30;;
36371;SDS011;22398;51.346;12.372;2023-04-15T13:55:54;6.70;;;4.38;;
36371;SDS011;22398;51.346;12.372;2023-04-15T14:00:57;6.87;;;4.47;;
36371;SDS011;22398;51.346;12.372;2023-04-15T14:06:02;10.02;;;5.20;;
36371;SDS011;22398;51.346;12.372;2023-04-15T14:11:08;9.18;;;5.13;;
36371;SDS011;22398;51.346;12.372;2023-04-15T14:16:11;6.95;;;4.90;;
36371;SDS011;22398;51.346;12.372;2023-04-15T14:21:15;8.90;;;5.30;;
36371;SDS011;22398;51.346;12.372;2023-04-15T14:26:19;10.48;;;5.60;;
36371;SDS011;22398;51.346;12.372;2023-04-15T14:31:22;11.97;;;6.00;;
36371;SDS011;22398;51.346;12.372;2023-04-15T14:36:26;10.05;;;5.47;;
36371;SDS011;22398;51.346;12.372;2023-04-15T14:41:30;10.20;;;5.18;;
36371;SDS011;22398;51.346;12.372;2023-04-15T14:46:33;9.40;;;6.07;;
36371;SDS011;22398;51.346;12.372;2023-04-15T14:51:37;7.70;;;5.00;;
36371;SDS011;22398;51.346;12.372;2023-04-15T14:56:43;8.53;;;5.47;;
36371;SDS011;22398;51.346;12.372;2023-04-15T15:01:47;9.05;;;5.20;;
36371;SDS011;22398;51.346;12.372;2023-04-15T15:06:51;10.35;;;6.18;;
36371;SDS011;22398;51.346;12.372;2023-04-15T15:11:56;8.80;;;5.63;;
36371;SDS011;22398;51.346;12.372;2023-04-15T15:17:00;9.63;;;5.90;;
36371;SDS011;22398;51.346;12.372;2023-04-15T15:22:04;9.80;;;6.03;;
36371;SDS011;22398;51.346;12.372;2023-04-15T15:27:08;12.90;;;6.18;;
36371;SDS011;22398;51.346;12.372;2023-04-15T15:32:12;8.35;;;5.40;;
36371;SDS011;22398;51.346;12.372;2023-04-15T15:37:15;9.65;;;6.03;;
36371;SDS011;22398;51.346;12.372;2023-04-15T15:42:21;12.80;;;5.97;;
36371;SDS011;22398;51.346;12.372;2023-04-15T15:47:25;10.68;;;6.15;;
36371;SDS011;22398;51.346;12.372;2023-04-15T15:52:29;9.63;;;6.00;;
36371;SDS011;22398;51.346;12.372;2023-04-15T15:57:33;10.80;;;7.07;;
36371;SDS011;22398;51.346;12.372;2023-04-15T16:02:37;10.73;;;6.53;;
36371;SDS011;22398;51.346;12.372;2023-04-15T16:08:01;9.45;;;5.82;;
36371;SDS011;22398;51.346;12.372;2023-04-15T16:13:06;10.93;;;7.03;;
36371;SDS011;22398;51.346;12.372;2023-04-15T16:18:10;10.80;;;6.95;;
36371;SDS011;22398;51.346;12.372;2023-04-15T16:23:14;10.90;;;6.63;;
36371;SDS011;22398;51.346;12.372;2023-04-15T16:28:19;10.45;;;7.10;;
36371;SDS011;22398;51.346;12.372;2023-04-15T16:33:27;11.73;;;7.25;;
36371;SDS011;22398;51.346;12.372;2023-04-15T16:38:31;11.68;;;7.60;;
36371;SDS011;22398;51.346;12.372;2023-04-15T16:43:35;14.50;;;7.57;;
36371;SDS011;22398;51.346;12.372;2023-04-15T16:48:38;10.52;;;7.70;;
36371;SDS011;22398;51.346;12.372;2023-04-15T16:53:42;12.95;;;7.60;;
36371;SDS011;22398;51.346;12.372;2023-04-15T16:58:46;10.90;;;7.55;;
36371;SDS011;22398;51.346;12.372;2023-04-15T17:03:50;11.65;;;7.50;;
36371;SDS011;22398;51.346;12.372;2023-04-15T17:08:56;12.50;;;7.85;;
36371;SDS011;22398;51.346;12.372;2023-04-15T17:14:02;15.15;;;8.10;;
36371;SDS011;22398;51.346;12.372;2023-04-15T17:19:06;12.85;;;8.18;;
36371;SDS011;22398;51.346;12.372;2023-04-15T17:24:10;12.77;;;7.50;;
36371;SDS011;22398;51.346;12.372;2023-04-15T17:29:15;12.98;;;7.85;;
36371;SDS011;22398;51.346;12.372;2023-04-15T17:34:19;16.08;;;8.00;;
36371;SDS011;22398;51.346;12.372;2023-04-15T17:39:22;10.75;;;7.75;;
36371;SDS011;22398;51.346;12.372;2023-04-15T17:44:27;13.65;;;7.63;;
36371;SDS011;22398;51.346;12.372;2023-04-15T17:49:31;13.15;;;7.00;;
36371;SDS011;22398;51.346;12.372;2023-04-15T17:54:35;13.30;;;7.60;;
36371;SDS011;22398;51.346;12.372;2023-04-15T17:59:40;11.82;;;7.70;;
36371;SDS011;22398;51.346;12.372;2023-04-15T18:04:44;13.15;;;8.35;;
36371;SDS011;22398;51.346;12.372;2023-04-15T18:09:48;12.90;;;7.68;;
36371;SDS011;22398;51.346;12.372;2023-04-15T18:14:53;11.13;;;7.40;;
36371;SDS011;22398;51.346;12.372;2023-04-15T18:19:57;13.77;;;7.30;;
36371;SDS011;22398;51.346;12.372;2023-04-15T18:25:00;14.63;;;7.70;;
36371;SDS011;22398;51.346;12.372;2023-04-15T18:30:07;15.90;;;7.55;;
36371;SDS011;22398;51.346;12.372;2023-04-15T18:35:12;12.30;;;7.40;;
36371;SDS011;22398;51.346;12.372;2023-04-15T18:40:17;13.18;;;7.72;;
36371;SDS011;22398;51.346;12.372;2023-04-15T18:45:22;13.23;;;8.38;;
36371;SDS011;22398;51.346;12.372;2023-04-15T18:50:26;12.90;;;8.47;;
36371;SDS011;22398;51.346;12.372;2023-04-15T18:55:30;12.50;;;8.25;;
36371;SDS011;22398;51.346;12.372;2023-04-15T19:00:35;14.73;;;8.80;;
36371;SDS011;22398;51.346;12.372;2023-04-15T19:05:42;13.80;;;8.85;;
36371;SDS011;22398;51.346;12.372;2023-04-15T19:10:46;16.20;;;8.13;;
36371;SDS011;22398;51.346;12.372;2023-04-15T19:15:51;12.82;;;8.07;;
36371;SDS011;22398;51.346;12.372;2023-04-15T19:20:55;17.73;;;10.18;;
36371;SDS011;22398;51.346;12.372;2023-04-15T19:25:59;18.95;;;10.00;;
36371;SDS011;22398;51.346;12.372;2023-04-15T19:31:04;15.85;;;9.30;;
36371;SDS011;22398;51.346;12.372;2023-04-15T19:36:08;15.65;;;9.70;;
36371;SDS011;22398;51.346;12.372;2023-04-15T19:41:12;18.60;;;10.00;;
36371;SDS011;22398;51.346;12.372;2023-04-15T19:46:17;15.27;;;9.70;;
36371;SDS011;22398;51.346;12.372;2023-04-15T19:51:21;16.80;;;9.25;;
36371;SDS011;22398;51.346;12.372;2023-04-15T19:56:25;14.45;;;9.55;;
36371;SDS011;22398;51.346;12.372;2023-04-15T20:01:30;16.38;;;9.55;;
36371;SDS011;22398;51.346;12.372;2023-04-15T20:06:34;20.80;;;11.75;;
36371;SDS011;22398;51.346;12.372;2023-04-15T20:11:37;17.42;;;10.05;;
36371;SDS011;22398;51.346;12.372;2023-04-15T20:17:02;18.85;;;10.15;;
36371;SDS011;22398;51.346;12.372;2023-04-15T20:22:06;15.95;;;9.38;;
36371;SDS011;22398;51.346;12.372;2023-04-15T20:27:10;17.65;;;10.55;;
36371;SDS011;22398;51.346;12.372;2023-04-15T20:32:15;16.38;;;10.00;;
36371;SDS011;22398;51.346;12.372;2023-04-15T20:37:19;25.63;;;13.85;;
36371;SDS011;22398;51.346;12.372;2023-04-15T20:42:23;28.00;;;14.60;;
36371;SDS011;22398;51.346;12.372;2023-04-15T20:47:28;24.20;;;13.73;;
36371;SDS011;22398;51.346;12.372;2023-04-15T20:52:31;16.73;;;10.07;;
36371;SDS011;22398;51.346;12.372;2023-04-15T20:57:35;18.17;;;10.07;;
36371;SDS011;22398;51.346;12.372;2023-04-15T21:02:40;17.90;;;11.05;;
36371;SDS011;22398;51.346;12.372;2023-04-15T21:07:44;15.50;;;9.80;;
36371;SDS011;22398;51.346;12.372;2023-04-15T21:12:48;18.23;;;10.77;;
36371;SDS011;22398;51.346;12.372;2023-04-15T21:17:53;16.60;;;9.52;;
36371;SDS011;22398;51.346;12.372;2023-04-15T21:22:56;17.30;;;10.37;;
36371;SDS011;22398;51.346;12.372;2023-04-15T21:27:59;20.58;;;11.52;;
36371;SDS011;22398;51.346;12.372;2023-04-15T21:33:05;21.77;;;11.45;;
36371;SDS011;22398;51.346;12.372;2023-04-15T21:38:08;21.05;;;11.60;;
36371;SDS011;22398;51.346;12.372;2023-04-15T21:43:11;21.67;;;11.60;;
36371;SDS011;22398;51.346;12.372;2023-04-15T21:48:16;20.02;;;11.40;;
36371;SDS011;22398;51.346;12.372;2023-04-15T21:53:19;26.37;;;13.07;;
36371;SDS011;22398;51.346;12.372;2023-04-15T21:58:23;22.83;;;12.20;;
36371;SDS011;22398;51.346;12.372;2023-04-15T22:03:28;20.10;;;11.05;;
36371;SDS011;22398;51.346;12.372;2023-04-15T22:08:34;20.50;;;11.70;;
36371;SDS011;22398;51.346;12.372;2023-04-15T22:13:53;25.20;;;12.57;;
36371;SDS011;22398;51.346;12.372;2023-04-15T22:18:58;23.25;;;11.50;;
36371;SDS011;22398;51.346;12.372;2023-04-15T22:24:03;19.52;;;11.30;;
36371;SDS011;22398;51.346;12.372;2023-04-15T22:29:27;24.30;;;12.02;;
36371;SDS011;22398;51.346;12.372;2023-04-15T22:34:33;22.48;;;12.98;;
36371;SDS011;22398;51.346;12.372;2023-04-15T22:39:36;25.45;;;12.65;;
36371;SDS011;22398;51.346;12.372;2023-04-15T22:44:39;23.60;;;12.40;;
36371;SDS011;22398;51.346;12.372;2023-04-15T22:49:44;24.60;;;13.02;;
36371;SDS011;22398;51.346;12.372;2023-04-15T22:54:47;23.93;;;12.07;;
36371;SDS011;22398;51.346;12.372;2023-04-15T22:59:50;21.55;;;11.90;;
36371;SDS011;22398;51.346;12.372;2023-04-15T23:04:55;20.75;;;12.40;;
36371;SDS011;22398;51.346;12.372;2023-04-15T23:09:59;19.63;;;11.88;;
36371;SDS011;22398;51.346;12.372;2023-04-15T23:15:03;20.13;;;11.65;;
36371;SDS011;22398;51.346;12.372;2023-04-15T23:20:09;18.15;;;10.45;;
36371;SDS011;22398;51.346;12.372;2023-04-15T23:25:14;19.70;;;11.57;;
36371;SDS011;22398;51.346;12.372;2023-04-15T23:30:17;19.70;;;11.27;;
36371;SDS011;22398;51.346;12.372;2023-04-15T23:35:23;15.90;;;10.23;;
36371;SDS011;22398;51.346;12.372;2023-04-15T23:40:28;17.92;;;11.18;;
36371;SDS011;22398;51.346;12.372;2023-04-15T23:45:31;20.02;;;10.82;;
36371;SDS011;22398;51.346;12.372;2023-04-15T23:50:36;20.88;;;11.73;;
36371;SDS011;22398;51.346;12.372;2023-04-15T23:55:40;25.17;;;11.95;;
